Time;durP1;ratioP1;P1;durP2;ratioP2;P2;SDS_P1;SDS_P2;PMS_P1;PMS_P2;Temp;Humidity;BMP_temperature;BMP_pressure;BME280_temperature;BME280_humidity;BME280_pressure;Samples;Min_cycle;Max_cycle;Signal;HPM_P1;HPM_P2
2022/05/06 00:00:24;;;;;;;13.68;12.38;;;;;;;13.97;80.82;97173.97;6244823;23;20020;-78
2022/05/06 00:02:52;;;;;;;14.00;12.60;;;;;;;13.94;78.85;97181.38;6244985;23;20024;-78
2022/05/06 00:05:19;;;;;;;16.75;13.57;;;;;;;13.86;77.54;97177.06;6244554;23;20087;-78
2022/05/06 00:07:47;;;;;;;14.38;11.57;;;;;;;13.80;78.23;97170.78;6244102;23;20020;-78
2022/05/06 00:10:15;;;;;;;12.30;11.02;;;;;;;13.82;79.53;97170.59;6244851;23;20031;-78
2022/05/06 00:12:42;;;;;;;14.43;12.93;;;;;;;13.79;78.12;97170.97;6244820;23;20078;-78
2022/05/06 00:15:12;;;;;;;13.73;12.43;;;;;;;13.77;78.22;97172.97;6244908;23;20107;-78
2022/05/06 00:17:39;;;;;;;11.95;10.75;;;;;;;13.77;79.57;97165.94;6243990;23;20020;-78
2022/05/06 00:20:08;;;;;;;13.60;12.18;;;;;;;13.83;81.04;97166.16;6244677;23;20020;-78
2022/05/06 00:22:35;;;;;;;15.48;13.88;;;;;;;13.84;81.32;97163.38;6245786;23;20023;-78
2022/05/06 00:25:03;;;;;;;18.05;13.43;;;;;;;13.86;81.63;97166.59;6247022;23;20270;-78
2022/05/06 00:27:31;;;;;;;14.15;12.75;;;;;;;13.83;80.90;97164.34;6246130;23;20023;-78
2022/05/06 00:29:58;;;;;;;13.80;12.05;;;;;;;13.83;81.22;97166.97;6246852;23;20079;-78
2022/05/06 00:32:28;;;;;;;15.13;13.52;;;;;;;13.84;82.28;97165.16;6246651;23;20476;-78
2022/05/06 00:34:55;;;;;;;14.18;12.25;;;;;;;13.80;80.52;97168.16;6247021;23;20020;-78
2022/05/06 00:37:23;;;;;;;14.38;12.77;;;;;;;13.75;79.30;97164.47;6245475;23;20017;-78
2022/05/06 00:39:51;;;;;;;12.98;11.63;;;;;;;13.74;80.58;97162.84;6246786;23;20522;-78
2022/05/06 00:42:19;;;;;;;14.73;13.23;;;;;;;13.76;81.93;97172.16;6247050;23;20020;-78
2022/05/06 00:44:46;;;;;;;14.93;12.82;;;;;;;13.77;82.24;97170.34;6246898;23;20020;-78
2022/05/06 00:47:17;;;;;;;13.65;12.25;;;;;;;13.74;81.09;97166.28;6245899;23;20020;-78
2022/05/06 00:49:46;;;;;;;13.75;12.10;;;;;;;13.71;80.81;97166.66;6247090;23;20344;-78
2022/05/06 00:52:16;;;;;;;13.73;12.13;;;;;;;13.66;79.25;97160.34;6246749;23;20043;-78
2022/05/06 00:54:44;;;;;;;14.23;12.65;;;;;;;13.63;79.15;97158.13;6246704;23;20036;-78
2022/05/06 00:57:12;;;;;;;13.85;12.48;;;;;;;13.66;80.87;97158.53;6245493;23;20058;-78
2022/05/06 01:02:23;;;;;;;14.75;12.30;;;;;;;13.73;82.09;97155.97;6331033;22;20023;-81
2022/05/06 01:04:57;;;;;;;14.52;13.05;;;;;;;13.75;81.81;97159.22;6336982;22;20023;-80
2022/05/06 01:07:25;;;;;;;15.23;13.65;;;;;;;13.75;82.13;97159.22;6335838;22;20046;-80
2022/05/06 01:09:53;;;;;;;14.00;12.15;;;;;;;13.74;82.25;97153.19;6334450;22;20014;-80
2022/05/06 01:12:22;;;;;;;15.60;13.93;;;;;;;13.75;82.84;97153.97;6333373;22;20023;-80
2022/05/06 01:14:49;;;;;;;15.30;13.73;;;;;;;13.76;83.52;97160.88;6333751;22;20023;-80
2022/05/06 01:17:17;;;;;;;15.10;13.00;;;;;;;13.75;82.57;97159.22;6332540;22;20075;-79
2022/05/06 01:19:45;;;;;;;13.48;12.05;;;;;;;13.72;82.71;97157.00;6333329;22;20034;-80
2022/05/06 01:22:15;;;;;;;15.30;13.68;;;;;;;13.74;83.23;97155.00;6333574;22;20030;-79
2022/05/06 01:24:42;;;;;;;15.82;13.05;;;;;;;13.74;83.41;97155.00;6333828;22;20030;-80
2022/05/06 01:27:15;;;;;;;14.35;12.85;;;;;;;13.73;83.75;97155.97;6332510;22;20019;-81
2022/05/06 01:29:44;;;;;;;13.85;12.52;;;;;;;13.72;83.46;97160.41;6332985;22;20019;-80
2022/05/06 01:32:13;;;;;;;15.45;13.20;;;;;;;13.71;83.12;97156.19;6332777;22;20038;-81
2022/05/06 01:34:43;;;;;;;16.45;14.32;;;;;;;13.71;83.13;97157.97;6334295;22;20031;-81
2022/05/06 01:37:18;;;;;;;15.07;12.90;;;;;;;13.70;83.83;97153.75;6335650;22;20019;-80
2022/05/06 01:39:52;;;;;;;14.70;13.20;;;;;;;13.72;83.94;97159.59;6335511;22;20034;-81
2022/05/06 01:42:23;;;;;;;14.07;11.90;;;;;;;13.70;83.46;97161.59;6333716;22;20054;-81
2022/05/06 01:44:52;;;;;;;15.88;13.98;;;;;;;13.70;83.83;97156.38;6333544;22;20023;-80
2022/05/06 01:47:26;;;;;;;14.90;13.35;;;;;;;13.70;83.83;97153.75;6334252;22;20014;-81
2022/05/06 01:49:55;;;;;;;15.00;13.52;;;;;;;13.69;83.50;97163.41;6332946;22;20019;-80
2022/05/06 01:52:26;;;;;;;14.55;13.13;;;;;;;13.67;83.70;97162.00;6332435;22;20019;-81
2022/05/06 01:54:54;;;;;;;16.50;12.85;;;;;;;13.65;83.36;97154.31;6332794;22;20027;-81
2022/05/06 01:57:22;;;;;;;14.95;13.32;;;;;;;13.67;83.67;97154.13;6331820;22;20011;-80
2022/05/06 01:59:50;;;;;;;18.52;14.13;;;;;;;13.67;83.58;97156.75;6332127;22;20019;-81
2022/05/06 02:02:19;;;;;;;16.40;14.35;;;;;;;13.66;83.27;97157.72;6332273;22;20053;-81
2022/05/06 02:07:34;;;;;;;14.45;12.88;;;;;;;13.63;82.52;97155.50;6331629;22;20079;-80
2022/05/06 02:10:01;;;;;;;15.23;13.82;;;;;;;13.61;82.68;97155.69;6332424;22;20112;-81
2022/05/06 02:12:30;;;;;;;16.13;14.43;;;;;;;13.60;82.50;97160.13;6334586;22;20024;-80
2022/05/06 02:14:57;;;;;;;18.65;14.98;;;;;;;13.62;82.75;97164.34;6331865;22;20019;-81
2022/05/06 02:17:26;;;;;;;17.35;14.93;;;;;;;13.62;82.70;97156.47;6331617;22;20049;-80
2022/05/06 02:19:54;;;;;;;15.93;14.20;;;;;;;13.62;82.29;97157.28;6331580;22;20019;-81
2022/05/06 02:22:23;;;;;;;16.00;14.40;;;;;;;13.61;82.26;97158.31;6332037;22;20023;-81
2022/05/06 02:24:53;;;;;;;17.45;15.27;;;;;;;13.62;82.08;97159.09;6331933;22;20022;-81
2022/05/06 02:27:21;;;;;;;16.00;14.30;;;;;;;13.60;81.72;97165.34;6331702;22;20019;-81
2022/05/06 02:35:16;;;;;;;16.23;14.52;;;;;;;13.60;82.58;97165.34;6336080;22;20003;-81
2022/05/06 02:37:44;;;;;;;18.42;15.55;;;;;;;13.61;82.08;97166.16;6335379;22;20015;-80
2022/05/06 02:40:14;;;;;;;16.70;14.95;;;;;;;13.60;82.37;97161.94;6335791;22;20003;-81
2022/05/06 02:42:41;;;;;;;16.80;15.00;;;;;;;13.58;81.79;97171.78;6336257;22;20011;-80
2022/05/06 02:45:11;;;;;;;17.08;15.30;;;;;;;13.57;81.34;97163.09;6335535;22;20007;-80
2022/05/06 02:47:39;;;;;;;16.20;14.50;;;;;;;13.55;80.66;97165.09;6335591;22;19999;-80
2022/05/06 02:50:08;;;;;;;16.23;14.52;;;;;;;13.56;80.55;97160.69;6335960;22;19999;-80
2022/05/06 02:52:36;;;;;;;16.05;14.38;;;;;;;13.51;78.21;97168.28;6334311;22;20011;-80
2022/05/06 02:55:05;;;;;;;16.02;14.02;;;;;;;13.44;79.78;97160.34;6332723;22;20023;-80
2022/05/06 02:57:34;;;;;;;16.45;14.82;;;;;;;13.44;77.23;97173.44;6332086;22;20015;-81
2022/05/06 03:00:02;;;;;;;15.93;14.13;;;;;;;13.41;77.09;97170.41;6329965;22;20030;-80
2022/05/06 03:02:30;;;;;;;16.15;14.55;;;;;;;13.43;79.41;97171.84;6332178;22;20023;-80
2022/05/06 03:04:58;;;;;;;15.77;14.07;;;;;;;13.48;79.42;97174.69;6331904;22;20019;-80
2022/05/06 03:07:26;;;;;;;16.40;14.70;;;;;;;13.51;80.29;97174.34;6330835;22;20023;-81
2022/05/06 03:09:54;;;;;;;17.67;15.77;;;;;;;13.54;80.75;97171.34;6330948;22;20034;-79
2022/05/06 03:12:26;;;;;;;16.75;14.95;;;;;;;13.55;81.05;97167.69;6332042;22;20022;-80
2022/05/06 03:14:55;;;;;;;16.38;14.30;;;;;;;13.55;80.26;97164.28;6332358;22;20049;-81
2022/05/06 03:17:23;;;;;;;14.35;12.93;;;;;;;13.53;80.24;97166.28;6330662;22;20019;-80
2022/05/06 03:19:51;;;;;;;17.13;14.20;;;;;;;13.54;80.61;97168.72;6330610;22;20026;-80
2022/05/06 03:22:20;;;;;;;15.63;14.18;;;;;;;13.55;81.34;97170.31;6331431;22;20020;-80
2022/05/06 03:24:48;;;;;;;17.58;15.43;;;;;;;13.55;81.29;97170.31;6331848;22;20003;-80
2022/05/06 03:30:03;;;;;;;14.77;13.32;;;;;;;13.55;81.45;97170.31;6333179;22;20023;-81
2022/05/06 03:32:31;;;;;;;17.58;14.45;;;;;;;13.52;79.40;97159.44;6330928;22;20030;-81
2022/05/06 03:34:59;;;;;;;15.20;13.02;;;;;;;13.51;79.18;97169.09;6331397;22;20022;-81
2022/05/06 03:37:27;;;;;;;15.55;13.93;;;;;;;13.51;80.73;97163.88;6326402;22;20041;-81
2022/05/06 03:39:56;;;;;;;15.98;14.40;;;;;;;13.52;81.05;97162.84;6327250;22;20019;-80
2022/05/06 03:42:25;;;;;;;15.18;13.63;;;;;;;13.54;81.33;97170.53;6330049;22;20049;-80
2022/05/06 03:44:53;;;;;;;16.48;14.85;;;;;;;13.54;81.81;97170.53;6329956;22;20022;-80
2022/05/06 03:47:22;;;;;;;17.10;14.60;;;;;;;13.51;81.66;97169.09;6327909;22;20027;-80
2022/05/06 03:51:20;;;;;;;15.75;14.20;;;;;;;13.51;82.05;97174.34;6330321;22;20022;-80
2022/05/06 03:52:38;;;;;;;17.15;15.02;;;;;;;13.49;82.69;97171.09;6330031;22;20015;-80
2022/05/06 03:55:07;;;;;;;16.80;15.10;;;;;;;13.50;82.67;97174.53;6329982;22;20011;-81
2022/05/06 03:57:36;;;;;;;16.92;15.20;;;;;;;13.49;83.12;97171.09;6329673;22;20039;-81
2022/05/06 04:00:05;;;;;;;17.20;15.27;;;;;;;13.49;83.11;97178.97;6330754;22;20022;-81
2022/05/06 04:02:37;;;;;;;16.80;14.57;;;;;;;13.48;82.63;97181.75;6330006;22;20045;-80
2022/05/06 04:05:06;;;;;;;16.02;14.48;;;;;;;13.45;82.91;97174.28;6330252;22;20007;-80
2022/05/06 04:07:34;;;;;;;15.30;13.70;;;;;;;13.41;81.54;97168.59;6331741;22;20007;-81
2022/05/06 04:10:04;;;;;;;16.40;14.70;;;;;;;13.33;79.23;97179.16;6333192;22;20014;-80
2022/05/06 04:13:08;;;;;;;14.48;12.98;;;;;;;13.31;79.24;97183.78;6309435;22;20008;-81
2022/05/06 04:15:53;;;;;;;14.65;13.15;;;;;;;13.29;78.79;97178.72;6304416;22;20055;-82
2022/05/06 04:18:37;;;;;;;13.63;12.23;;;;;;;13.32;80.46;97177.56;6304643;22;20108;-81
2022/05/06 04:26:29;;;;;;;16.52;13.57;;;;;;;13.29;79.66;97178.72;6324789;22;20006;-81
2022/05/06 04:31:45;;;;;;;17.02;13.77;;;;;;;13.23;77.65;97196.94;6312560;22;20086;-81
2022/05/06 04:34:31;;;;;;;16.60;13.95;;;;;;;13.21;76.70;97189.28;6304312;22;20012;-82
2022/05/06 04:37:06;;;;;;;15.75;12.95;;;;;;;13.18;76.79;97187.88;6329792;22;20067;-82
2022/05/06 04:39:38;;;;;;;14.77;13.23;;;;;;;13.19;77.65;97189.47;6290617;22;20014;-81
2022/05/06 04:42:11;;;;;;;15.07;13.38;;;;;;;13.18;76.74;97195.72;6304452;22;20012;-81
2022/05/06 04:44:53;;;;;;;14.43;12.90;;;;;;;13.16;76.74;97196.88;6299975;22;20031;-80
2022/05/06 04:47:21;;;;;;;13.57;12.27;;;;;;;13.16;76.86;97195.09;6297978;22;20020;-80
2022/05/06 04:49:52;;;;;;;14.68;13.10;;;;;;;13.16;77.20;97202.09;6300834;22;20019;-80
2022/05/06 04:52:20;;;;;;;17.23;13.60;;;;;;;13.17;76.83;97201.94;6301244;22;20016;-80
2022/05/06 04:54:48;;;;;;;14.18;12.68;;;;;;;13.16;76.75;97207.34;6297541;22;20039;-80
2022/05/06 04:57:17;;;;;;;14.15;12.75;;;;;;;13.16;76.29;97208.19;6300635;22;20083;-80
2022/05/06 04:59:47;;;;;;;14.55;12.98;;;;;;;13.18;75.81;97211.44;6297736;22;20355;-79
2022/05/06 05:02:17;;;;;;;14.15;12.35;;;;;;;13.18;76.36;97211.44;6297097;22;20024;-80
2022/05/06 05:04:46;;;;;;;18.35;14.93;;;;;;;13.17;75.76;97209.78;6303518;22;20083;-80
2022/05/06 05:07:17;;;;;;;15.68;14.07;;;;;;;13.20;78.55;97217.28;6301247;22;20016;-81
2022/05/06 05:09:45;;;;;;;21.40;18.58;;;;;;;13.26;79.53;97214.94;6293201;22;20083;-80
2022/05/06 05:12:13;;;;;;;20.08;16.77;;;;;;;13.23;76.82;97218.75;6297966;22;20078;-80
2022/05/06 05:14:41;;;;;;;20.90;17.08;;;;;;;13.16;75.61;97210.81;6300188;22;20043;-80
2022/05/06 05:17:10;;;;;;;21.55;17.90;;;;;;;13.13;75.25;97218.22;6300691;22;20006;-80
2022/05/06 05:19:38;;;;;;;22.05;17.23;;;;;;;13.10;75.00;97214.16;6302147;22;20043;-80
2022/05/06 05:22:06;;;;;;;20.45;15.88;;;;;;;13.09;75.16;97216.94;6302007;22;20027;-80
2022/05/06 05:24:36;;;;;;;14.77;13.27;;;;;;;13.11;75.08;97218.38;6302016;22;20016;-79
2022/05/06 05:27:04;;;;;;;14.93;13.02;;;;;;;13.16;74.80;97218.66;6301313;22;20004;-82
2022/05/06 05:29:32;;;;;;;14.45;13.02;;;;;;;13.23;76.82;97217.91;6301683;22;20055;-81
2022/05/06 05:32:00;;;;;;;19.23;13.60;;;;;;;13.27;77.05;97221.78;6302785;22;20049;-80
2022/05/06 05:34:27;;;;;;;17.23;15.23;;;;;;;13.34;78.81;97222.72;6297508;22;20016;-80
2022/05/06 05:36:56;;;;;;;19.02;15.88;;;;;;;13.40;79.66;97227.22;6296238;22;20068;-80
2022/05/06 05:39:24;;;;;;;15.52;14.00;;;;;;;13.43;79.71;97234.72;6301494;22;20031;-80
2022/05/06 05:50:52;;;;;;;15.68;14.05;;;;;;;13.54;79.20;97229.00;6277521;22;20027;-79
2022/05/06 05:53:23;;;;;;;19.75;15.10;;;;;;;13.53;77.53;97234.41;6273380;23;20018;-79
2022/05/06 05:55:53;;;;;;;15.18;13.55;;;;;;;13.56;78.42;97228.81;6273288;22;20030;-79
2022/05/06 05:58:26;;;;;;;14.93;13.43;;;;;;;13.58;77.39;97230.25;6273897;22;20015;-82
2022/05/06 06:00:58;;;;;;;14.57;12.82;;;;;;;13.59;76.68;97220.59;6274699;22;20035;-82
2022/05/06 06:03:28;;;;;;;14.40;12.65;;;;;;;13.64;77.84;97222.66;6274964;22;20008;-83
2022/05/06 06:05:57;;;;;;;15.95;14.35;;;;;;;13.67;78.61;97224.91;6260975;22;20031;-82
2022/05/06 06:08:27;;;;;;;15.27;13.73;;;;;;;13.68;77.55;97227.31;6241354;22;20024;-82
2022/05/06 06:11:01;;;;;;;15.75;13.52;;;;;;;13.68;77.18;97231.75;6241904;22;20060;-82
2022/05/06 06:13:31;;;;;;;15.52;14.00;;;;;;;13.71;78.34;97234.00;6243469;22;20020;-82
2022/05/06 06:16:00;;;;;;;15.95;12.80;;;;;;;13.75;79.27;97235.25;6240291;22;20021;-82
2022/05/06 06:18:29;;;;;;;14.77;11.75;;;;;;;13.75;76.82;97238.72;6240396;23;20016;-82
2022/05/06 06:20:57;;;;;;;13.60;12.15;;;;;;;13.76;77.78;97237.72;6243357;22;20024;-81
2022/05/06 06:23:26;;;;;;;13.20;11.77;;;;;;;13.79;77.00;97245.19;6241772;22;20024;-82
2022/05/06 06:26:09;;;;;;;12.32;10.70;;;;;;;13.73;73.34;97234.63;6248118;22;20032;-82
2022/05/06 06:28:38;;;;;;;12.18;10.90;;;;;;;13.67;72.61;97230.16;6273856;22;20000;-82
2022/05/06 06:31:07;;;;;;;13.05;10.68;;;;;;;13.67;72.25;97238.03;6272654;22;20016;-82
2022/05/06 06:33:38;;;;;;;12.02;10.68;;;;;;;13.72;74.20;97239.06;6272608;23;20050;-82
2022/05/06 06:36:09;;;;;;;13.80;11.20;;;;;;;13.78;73.69;97242.78;6282801;22;20016;-81
2022/05/06 06:38:40;;;;;;;12.43;10.30;;;;;;;13.80;72.00;97246.81;6279194;22;20012;-81
2022/05/06 06:41:09;;;;;;;13.25;10.48;;;;;;;13.82;71.22;97249.28;6304057;22;20038;-81
2022/05/06 06:43:43;;;;;;;18.55;10.48;;;;;;;13.85;71.12;97238.41;6304393;22;20004;-82
2022/05/06 06:46:14;;;;;;;11.90;9.98;;;;;;;13.89;70.88;97250.16;6303741;22;20008;-81
2022/05/06 06:48:44;;;;;;;10.45;9.25;;;;;;;13.95;71.96;97249.41;6305276;22;20011;-81
2022/05/06 06:51:18;;;;;;;10.55;9.05;;;;;;;14.02;72.63;97247.66;6304909;22;20031;-81
2022/05/06 06:54:00;;;;;;;10.73;9.52;;;;;;;14.08;74.21;97250.50;6305155;22;20008;-82
2022/05/06 06:56:37;;;;;;;10.52;9.43;;;;;;;14.12;73.62;97263.06;6280064;22;20060;-83
2022/05/06 07:02:10;;;;;;;10.00;8.88;;;;;;;14.10;69.94;97257.22;6271851;22;20024;-81
2022/05/06 07:13:34;;;;;;;14.00;9.07;;;;;;;14.11;68.58;97255.41;6305449;22;20010;-79
2022/05/06 07:18:46;;;;;;;10.57;8.10;;;;;;;14.00;66.14;97256.72;6289581;22;19999;-80
2022/05/06 07:21:18;;;;;;;11.90;6.75;;;;;;;13.97;66.11;97254.44;6305182;22;20020;-79
2022/05/06 07:29:26;;;;;;;11.88;6.55;;;;;;;14.05;66.39;97256.16;6296533;22;20004;-79
2022/05/06 07:32:01;;;;;;;7.70;6.10;;;;;;;14.09;64.53;97260.03;6304558;22;20015;-79
2022/05/06 07:34:36;;;;;;;8.98;5.93;;;;;;;14.14;65.34;97268.13;6283608;22;20023;-79
2022/05/06 07:39:43;;;;;;;7.15;6.45;;;;;;;14.17;66.48;97268.56;6289363;22;19919;-79
2022/05/06 07:42:15;;;;;;;7.13;6.43;;;;;;;14.23;69.22;97274.88;6304025;22;20063;-79
2022/05/06 07:44:46;;;;;;;7.18;6.47;;;;;;;14.28;70.05;97277.75;6304173;22;20042;-80
2022/05/06 07:53:15;;;;;;;10.35;5.60;;;;;;;14.25;63.57;97265.00;6285830;22;20079;-81
2022/05/06 07:55:54;;;;;;;8.38;5.97;;;;;;;14.27;64.80;97268.25;6280013;22;20007;-83
2022/05/06 08:07:09;;;;;;;6.15;5.20;;;;;;;14.39;63.34;97279.06;6253443;22;20016;-79
2022/05/06 08:12:55;;;;;;;5.65;4.80;;;;;;;14.39;63.53;97281.69;6235129;22;20007;-82
2022/05/06 08:23:41;;;;;;;9.27;5.38;;;;;;;14.45;62.30;97285.34;6275522;22;20030;-80
2022/05/06 08:26:18;;;;;;;9.48;4.53;;;;;;;14.48;61.38;97285.81;6256113;22;20030;-82
2022/05/06 08:31:44;;;;;;;6.55;4.85;;;;;;;14.48;59.24;97287.63;6259417;22;20059;-81
2022/05/06 08:39:38;;;;;;;8.18;5.57;;;;;;;14.48;59.81;97285.00;6286966;22;20014;-80
2022/05/06 08:42:13;;;;;;;4.85;4.25;;;;;;;14.48;59.52;97288.44;6304104;22;20087;-80
2022/05/06 08:53:20;;;;;;;10.25;4.70;;;;;;;14.78;59.97;97291.72;6209764;23;20025;-79
2022/05/06 08:55:52;;;;;;;5.13;4.57;;;;;;;14.89;58.55;97297.44;6266289;22;20034;-80
2022/05/06 08:58:23;;;;;;;10.90;4.72;;;;;;;14.95;58.95;97292.22;6305053;22;20063;-80
2022/05/06 09:01:12;;;;;;;11.13;5.05;;;;;;;15.05;58.50;97291.88;6303563;22;20034;-81
2022/05/06 09:03:47;;;;;;;9.30;4.88;;;;;;;15.08;57.97;97295.94;6304300;22;20059;-79
2022/05/06 09:06:20;;;;;;;6.38;4.95;;;;;;;15.12;58.00;97287.47;6302756;22;20079;-81
2022/05/06 09:08:55;;;;;;;7.15;4.68;;;;;;;15.20;57.45;97299.66;6304737;22;20028;-79
2022/05/06 09:16:39;;;;;;;5.72;4.53;;;;;;;15.34;57.27;97290.81;6305674;22;19935;-81
2022/05/06 09:17:20;;;;;;;6.25;4.63;;;;;;;15.39;56.70;97293.69;6304657;22;20020;-80
2022/05/06 09:19:53;;;;;;;7.25;4.45;;;;;;;15.43;56.77;97294.09;6305917;22;20011;-79
2022/05/06 09:25:06;;;;;;;9.73;5.13;;;;;;;15.54;56.49;97288.28;6276051;22;20020;-82
2022/05/06 09:27:42;;;;;;;6.32;4.40;;;;;;;15.64;56.29;97285.31;6249045;22;20000;-82
2022/05/06 09:30:20;;;;;;;5.68;4.82;;;;;;;15.71;55.42;97287.97;6250092;23;20020;-81
2022/05/06 09:38:24;;;;;;;6.88;3.90;;;;;;;16.00;53.56;97295.53;6288267;22;20038;-79
2022/05/06 09:41:35;;;;;;;5.70;4.18;;;;;;;16.09;54.28;97293.53;6302582;22;20026;-80
2022/05/06 09:47:11;;;;;;;8.15;4.68;;;;;;;16.29;53.24;97301.50;6273055;22;20020;-80
2022/05/06 09:56:18;;;;;;;6.40;3.78;;;;;;;16.60;51.75;97305.34;6213220;23;20048;-80
2022/05/06 10:02:19;;;;;;;4.65;3.60;;;;;;;16.80;52.04;97300.91;6297466;22;20015;-81
2022/05/06 10:04:49;;;;;;;21.95;4.90;;;;;;;16.87;51.19;97301.72;6278354;22;20050;-81
2022/05/06 10:26:50;;;;;;;6.45;3.88;;;;;;;17.33;51.57;97299.19;6253384;22;21093;-80
2022/05/06 16:05:04;;;;;;;;;;;;;;;17.54;49.08;97248.81;6279293;22;20035;-81
2022/05/06 16:07:38;;;;;;;8.60;4.85;;;;;;;17.53;49.25;97246.38;6303374;22;19931;-80
2022/05/06 16:10:16;;;;;;;8.30;5.30;;;;;;;17.52;49.02;97240.31;6304568;22;20020;-80
2022/05/06 16:13:10;;;;;;;11.38;5.13;;;;;;;17.52;48.27;97242.13;6303766;22;20019;-81
2022/05/06 16:15:52;;;;;;;6.07;4.90;;;;;;;17.52;48.61;97237.66;6296412;22;20034;-81
2022/05/06 16:18:32;;;;;;;8.45;5.15;;;;;;;17.52;48.97;97242.94;6281209;22;19999;-79
2022/05/06 19:07:41;;;;;;;8.02;5.55;;;;;;;15.57;60.62;97287.91;6276251;22;20234;-77
2022/05/06 19:10:09;;;;;;;6.90;5.05;;;;;;;15.52;60.66;97292.13;6276744;22;20459;-77
2022/05/06 19:12:37;;;;;;;10.75;7.13;;;;;;;15.46;60.38;97293.72;6276472;22;20341;-76
2022/05/06 19:15:07;;;;;;;9.73;7.03;;;;;;;15.40;60.60;97300.56;6276096;22;20077;-77
2022/05/06 19:17:35;;;;;;;7.13;6.35;;;;;;;15.35;60.49;97294.25;6275318;22;20035;-77
2022/05/06 19:20:06;;;;;;;6.93;5.68;;;;;;;15.31;60.65;97300.94;6276209;22;20016;-77
2022/05/06 19:25:21;;;;;;;6.22;4.95;;;;;;;15.21;60.20;97304.72;6275940;22;19915;-77
2022/05/06 19:27:49;;;;;;;6.65;5.03;;;;;;;15.13;60.21;97299.63;6276371;22;20018;-77
2022/05/06 19:30:16;;;;;;;6.22;5.50;;;;;;;15.06;60.49;97304.00;6278438;22;20016;-77
2022/05/06 19:32:44;;;;;;;7.10;4.88;;;;;;;15.01;60.40;97309.84;6279769;22;20020;-77
2022/05/06 19:35:12;;;;;;;5.35;4.88;;;;;;;14.94;60.15;97314.25;6278490;22;20016;-77
2022/05/06 19:37:41;;;;;;;5.88;4.57;;;;;;;14.87;60.57;97307.31;6278165;22;20045;-77
2022/05/06 19:40:11;;;;;;;6.15;5.00;;;;;;;14.79;60.68;97309.09;6276669;22;20054;-77
2022/05/06 19:42:41;;;;;;;8.75;5.50;;;;;;;14.75;60.86;97302.59;6275865;22;20012;-76
2022/05/06 19:45:09;;;;;;;6.88;5.15;;;;;;;14.74;60.86;97308.06;6277772;22;20019;-77
2022/05/06 19:47:37;;;;;;;13.73;5.63;;;;;;;14.69;60.81;97305.97;6276846;22;20020;-78
2022/05/06 19:50:06;;;;;;;7.45;5.75;;;;;;;14.64;61.08;97308.38;6278304;22;20467;-77
2022/05/06 19:55:19;;;;;;;7.75;5.93;;;;;;;14.52;61.17;97297.53;6283956;22;20099;-78
2022/05/06 19:57:48;;;;;;;7.97;5.35;;;;;;;14.47;61.16;97305.16;6281172;22;20029;-77
2022/05/06 20:00:16;;;;;;;7.85;5.40;;;;;;;14.40;60.91;97307.72;6282322;22;20019;-78
2022/05/06 20:02:44;;;;;;;5.97;5.07;;;;;;;14.33;61.42;97299.00;6280510;22;20102;-78
2022/05/06 20:05:12;;;;;;;5.72;4.90;;;;;;;14.26;61.29;97300.75;6280514;22;20012;-77
2022/05/06 20:07:39;;;;;;;8.32;5.40;;;;;;;14.17;61.33;97305.31;6277655;22;20028;-77
2022/05/06 20:10:08;;;;;;;7.28;4.72;;;;;;;14.11;61.30;97303.44;6276190;22;20414;-77
2022/05/06 20:12:35;;;;;;;9.57;5.13;;;;;;;14.04;61.67;97293.84;6276370;22;20012;-77
2022/05/06 20:15:05;;;;;;;7.55;5.40;;;;;;;13.98;61.86;97304.09;6274297;22;20039;-77
2022/05/06 20:17:32;;;;;;;9.35;5.65;;;;;;;13.92;61.92;97302.22;6282818;22;20027;-78
2022/05/06 20:20:00;;;;;;;9.05;5.07;;;;;;;13.86;61.97;97308.19;6280918;22;20020;-77
2022/05/06 20:22:30;;;;;;;11.55;4.90;;;;;;;13.81;62.18;97300.06;6279043;22;20024;-77
2022/05/06 20:25:09;;;;;;;10.02;5.10;;;;;;;13.75;62.52;97300.81;6279069;22;20016;-77
2022/05/06 20:27:39;;;;;;;8.52;6.10;;;;;;;13.69;62.58;97301.56;6279521;22;20059;-77
2022/05/06 20:30:10;;;;;;;7.50;5.43;;;;;;;13.62;62.96;97300.66;6279927;22;20016;-77
2022/05/06 20:32:40;;;;;;;5.70;5.10;;;;;;;13.57;62.93;97302.00;6281194;22;20020;-77
2022/05/06 20:35:08;;;;;;;9.50;5.18;;;;;;;13.54;62.94;97302.41;6279989;22;20237;-79
2022/05/06 20:37:37;;;;;;;9.82;5.65;;;;;;;13.48;62.92;97299.69;6279883;22;20022;-77
2022/05/06 20:40:10;;;;;;;8.70;5.63;;;;;;;13.44;63.32;97303.66;6280712;22;20026;-76
2022/05/06 20:42:37;;;;;;;5.97;5.38;;;;;;;13.38;63.27;97306.03;6276750;22;20026;-78
2022/05/06 20:45:06;;;;;;;6.85;5.05;;;;;;;13.34;63.54;97309.19;6275987;22;20502;-78
2022/05/06 20:47:35;;;;;;;8.10;5.63;;;;;;;13.31;63.74;97310.34;6274754;22;20650;-78
2022/05/06 20:50:03;;;;;;;8.68;6.13;;;;;;;13.28;63.94;97304.66;6276779;22;20026;-78
2022/05/06 20:52:30;;;;;;;9.00;5.78;;;;;;;13.24;63.82;97303.38;6279478;22;20023;-78
2022/05/06 20:54:58;;;;;;;7.65;5.93;;;;;;;13.17;64.15;97309.34;6277249;22;20030;-78
2022/05/06 21:00:12;;;;;;;8.52;5.97;;;;;;;13.09;64.31;97312.03;6276990;22;20015;-78
2022/05/06 21:02:41;;;;;;;10.63;6.03;;;;;;;13.04;64.55;97303.91;6277176;22;20028;-78
2022/05/06 21:05:09;;;;;;;9.15;6.13;;;;;;;13.02;64.62;97305.91;6277428;22;20019;-78
2022/05/06 21:07:37;;;;;;;7.13;5.40;;;;;;;13.03;64.84;97301.47;6276402;22;20049;-78
2022/05/06 21:15:37;;;;;;;11.63;5.68;;;;;;;12.96;65.17;97304.81;6280624;22;20026;-78
2022/05/06 21:18:06;;;;;;;6.47;5.88;;;;;;;12.93;65.17;97312.22;6276793;22;20028;-78
2022/05/06 21:20:34;;;;;;;7.93;6.53;;;;;;;12.91;65.28;97314.22;6277038;22;20099;-78
2022/05/06 21:23:02;;;;;;;10.38;7.45;;;;;;;12.90;65.62;97307.31;6278475;22;20019;-78
2022/05/06 21:25:30;;;;;;;10.00;7.13;;;;;;;12.89;65.46;97306.53;6276982;22;20051;-78
2022/05/06 21:27:58;;;;;;;9.15;6.65;;;;;;;12.86;65.45;97311.31;6276296;22;20026;-78
2022/05/06 21:30:34;;;;;;;8.65;6.47;;;;;;;12.83;65.59;97309.84;6277298;22;20020;-78
2022/05/06 21:33:02;;;;;;;12.43;7.00;;;;;;;12.79;65.75;97316.47;6277143;22;20104;-78
2022/05/06 21:35:30;;;;;;;7.40;5.78;;;;;;;12.75;65.86;97316.00;6276953;22;20328;-78
2022/05/06 21:37:58;;;;;;;8.93;6.75;;;;;;;12.70;65.90;97312.25;6276061;22;20016;-78
2022/05/06 21:40:25;;;;;;;10.45;6.82;;;;;;;12.68;66.21;97315.06;6277322;22;20020;-77
2022/05/06 21:42:53;;;;;;;7.53;6.45;;;;;;;12.70;67.35;97313.09;6277165;22;20020;-78
2022/05/06 21:45:21;;;;;;;11.65;7.18;;;;;;;12.68;66.74;97320.31;6277092;22;20026;-78
2022/05/06 21:47:48;;;;;;;11.70;6.55;;;;;;;12.69;68.28;97315.88;6276107;22;20360;-78
2022/05/06 21:50:16;;;;;;;10.63;8.57;;;;;;;12.69;67.54;97311.47;6276355;22;20028;-78
2022/05/06 21:52:45;;;;;;;9.27;6.93;;;;;;;12.66;67.12;97317.06;6276889;22;20022;-78
2022/05/06 21:55:13;;;;;;;8.85;6.93;;;;;;;12.63;66.89;97312.16;6278017;22;20099;-78
2022/05/06 21:57:41;;;;;;;8.15;6.22;;;;;;;12.63;66.92;97311.34;6278097;22;20026;-78
2022/05/06 22:00:13;;;;;;;8.90;6.47;;;;;;;12.61;67.00;97319.38;6278099;22;20026;-78
2022/05/06 22:02:41;;;;;;;10.13;6.32;;;;;;;12.58;67.37;97312.69;6276672;22;20102;-78
2022/05/06 22:05:09;;;;;;;9.68;7.03;;;;;;;12.56;67.01;97312.06;6277356;22;20390;-78
2022/05/06 22:07:37;;;;;;;9.93;6.63;;;;;;;12.56;67.40;97316.47;6275231;22;20024;-78
2022/05/06 22:10:07;;;;;;;7.35;6.65;;;;;;;12.56;67.25;97311.25;6276701;22;20019;-78
2022/05/06 22:12:37;;;;;;;8.73;6.07;;;;;;;12.54;67.07;97313.22;6276832;22;20080;-78
2022/05/06 22:15:05;;;;;;;9.98;6.30;;;;;;;12.51;67.04;97317.00;6276689;22;20026;-78
2022/05/06 22:17:33;;;;;;;9.70;6.30;;;;;;;12.49;67.23;97308.53;6275415;22;20091;-78
2022/05/06 22:20:00;;;;;;;12.23;7.03;;;;;;;12.51;67.11;97313.59;6286780;22;20023;-78
2022/05/06 22:22:29;;;;;;;11.20;7.60;;;;;;;12.49;66.99;97316.38;6287236;22;20023;-78
2022/05/06 22:24:56;;;;;;;10.02;6.90;;;;;;;12.50;67.37;97310.13;6287049;22;20032;-78
2022/05/06 22:27:26;;;;;;;9.57;6.50;;;;;;;12.49;67.34;97307.72;6280267;22;20026;-77
2022/05/06 22:29:53;;;;;;;12.20;7.18;;;;;;;12.49;67.10;97305.91;6276983;22;20016;-78
2022/05/06 22:32:21;;;;;;;8.07;6.78;;;;;;;12.45;67.20;97303.81;6277556;22;20026;-78
2022/05/06 22:34:48;;;;;;;8.65;6.57;;;;;;;12.45;68.12;97303.81;6277410;22;20026;-77